Soldotna Airport Soldotna US
ICAO: PASX
IATA:
Category: Medium
Scheduled Services:

Elevation: 113 ft
TransAlt. 18000 ft.

Airport Communications:
AWOS 3:135.45
ANCHORAGE CNTR:125.7
CTAF:122.5
KENAI RDO:122.35
TWEB:117.6

PASX Zoom In..

If you have problems with the map follow the link
https://www.worldairports.se/pages/airport.php?
ICAO=PASX

Runways:

(A) RW 07 length 5000 ft width 132 ft
---- / hdg 71

(B) RW 25 length 5000 ft width 132 ft
---- / hdg 251

Location; PASX
Day. 27 / Time. 04.56 Zulu
* Altimeter: 29.39
* Temperature: -25° c. 13°f.
* Wind from: 000° Speed 00 kn.
Dewpoint: -27° c.
Visibility: 10 Statute Miles.
Clouds: Clear (automated report).

PASX 270456Z AUTO 00000KT 10SM CLR M25/M27 A2939 RMK AO2 SLP964 T12501272 FZRANO


Wind - Calm.

 
 
jpsmedia worldairports.se 2020   terms of use